Time;durP1;ratioP1;P1;durP2;ratioP2;P2;SDS_P1;SDS_P2;PMS_P1;PMS_P2;Temp;Humidity;BMP_temperature;BMP_pressure;BME280_temperature;BME280_humidity;BME280_pressure;Samples;Min_cycle;Max_cycle;Signal;HPM_P1;HPM_P2
2023/07/15 00:01:14;;;;;;;8.00;4.35;;;18.70;1.00;;;;;;5080088;28;20057;-27
2023/07/15 00:03:40;;;;;;;8.13;4.45;;;18.70;1.00;;;;;;5073766;28;20051;-27
2023/07/15 00:06:07;;;;;;;11.13;4.43;;;18.70;1.00;;;;;;5073869;28;20044;-27
2023/07/15 00:08:33;;;;;;;5.82;4.50;;;18.70;1.00;;;;;;5074584;28;20091;-27
2023/07/15 00:11:00;;;;;;;6.18;4.57;;;18.70;1.00;;;;;;5085219;28;20434;-27
2023/07/15 00:13:26;;;;;;;7.05;4.38;;;18.70;1.00;;;;;;5091501;28;20040;-27
2023/07/15 00:15:57;;;;;;;10.65;4.32;;;18.80;99.90;;;;;;5075457;28;20051;-28
2023/07/15 00:18:23;;;;;;;6.40;4.13;;;18.70;99.90;;;;;;5075389;28;20045;-27
2023/07/15 00:20:49;;;;;;;5.53;3.80;;;18.70;99.90;;;;;;5087675;28;20119;-27
2023/07/15 00:23:26;;;;;;;6.20;3.90;;;18.70;99.90;;;;;;5074237;28;20048;-27
2023/07/15 00:25:53;;;;;;;7.40;3.75;;;18.80;99.90;;;;;;5074227;28;20051;-27
2023/07/15 00:28:21;;;;;;;5.85;3.28;;;18.80;99.90;;;;;;5074150;28;20044;-27
2023/07/15 00:30:50;;;;;;;6.68;3.45;;;18.80;99.90;;;;;;5074689;28;20049;-27
2023/07/15 00:33:16;;;;;;;7.05;3.28;;;18.80;99.90;;;;;;5083881;28;20044;-27
2023/07/15 00:35:45;;;;;;;10.55;3.90;;;18.80;99.90;;;;;;5093752;28;20106;-27
2023/07/15 00:38:11;;;;;;;7.20;3.63;;;18.90;1.00;;;;;;5093731;28;20047;-27
2023/07/15 00:40:41;;;;;;;6.88;3.53;;;18.90;1.00;;;;;;5094264;28;20044;-27
2023/07/15 00:43:44;;;;;;;7.18;3.25;;;19.00;1.00;;;;;;5092945;28;20042;-27
2023/07/15 00:46:31;;;;;;;6.28;3.50;;;19.00;99.90;;;;;;5092248;28;20044;-27
2023/07/15 00:49:15;;;;;;;8.43;3.88;;;19.00;99.90;;;;;;5093562;28;20052;-27
2023/07/15 00:51:44;;;;;;;9.32;3.80;;;18.90;99.90;;;;;;5092926;28;20422;-25
2023/07/15 00:54:12;;;;;;;6.60;3.50;;;19.00;99.90;;;;;;5091004;28;20391;-27
2023/07/15 00:56:39;;;;;;;10.82;3.92;;;18.90;1.00;;;;;;5087463;28;20505;-26
2023/07/15 00:59:06;;;;;;;6.25;3.83;;;18.90;1.00;;;;;;5056596;28;20119;-27
2023/07/15 01:01:32;;;;;;;5.65;3.47;;;18.90;1.00;;;;;;5077931;28;20036;-27
2023/07/15 01:03:58;;;;;;;5.60;3.90;;;18.90;1.00;;;;;;5087949;28;20083;-27
2023/07/15 01:06:24;;;;;;;6.40;3.35;;;18.90;1.00;;;;;;5088588;28;20079;-28
2023/07/15 01:08:50;;;;;;;5.82;3.13;;;18.90;1.00;;;;;;5074454;28;20398;-27
2023/07/15 01:11:15;;;;;;;6.70;3.60;;;18.90;1.00;;;;;;5073427;28;20045;-27
2023/07/15 01:13:41;;;;;;;6.75;3.35;;;18.90;1.00;;;;;;5086667;28;20379;-27
2023/07/15 01:16:07;;;;;;;5.72;3.00;;;19.00;1.00;;;;;;5088473;28;20052;-27
2023/07/15 01:18:33;;;;;;;6.55;3.28;;;19.00;99.90;;;;;;5073558;28;20479;-27
2023/07/15 01:20:59;;;;;;;6.70;3.03;;;19.00;99.90;;;;;;5080461;28;20066;-27
2023/07/15 01:23:29;;;;;;;7.05;2.75;;;19.00;99.90;;;;;;5093606;28;20534;-27
2023/07/15 01:25:56;;;;;;;6.70;3.20;;;19.00;99.90;;;;;;5092747;28;20131;-29
2023/07/15 01:28:22;;;;;;;5.93;2.88;;;19.00;99.90;;;;;;5092787;28;20042;-28
2023/07/15 01:30:48;;;;;;;9.90;2.90;;;19.00;99.90;;;;;;5093623;28;20048;-27
2023/07/15 01:33:15;;;;;;;8.48;2.90;;;19.00;99.90;;;;;;5086177;28;20048;-27
2023/07/15 01:35:48;;;;;;;3.42;2.80;;;18.90;99.90;;;;;;5073928;28;20132;-28
2023/07/15 01:38:14;;;;;;;7.80;3.17;;;19.00;99.90;;;;;;5073434;28;20081;-29
2023/07/15 01:40:40;;;;;;;8.70;3.20;;;19.10;99.90;;;;;;5073048;28;20562;-28
2023/07/15 01:43:06;;;;;;;5.32;3.05;;;19.10;99.90;;;;;;5073049;28;20044;-28
2023/07/15 01:45:32;;;;;;;5.10;2.92;;;19.20;95.20;;;;;;5073403;28;20101;-27
2023/07/15 01:47:57;;;;;;;10.10;3.78;;;19.20;86.30;;;;;;5071990;28;20086;-27
2023/07/15 01:50:23;;;;;;;8.10;3.38;;;19.20;71.40;;;;;;5072109;28;20051;-28
2023/07/15 01:52:49;;;;;;;5.32;2.90;;;19.20;36.90;;;;;;5087249;28;20490;-28
2023/07/15 01:55:15;;;;;;;5.32;2.72;;;19.20;13.30;;;;;;5074060;28;20072;-28
2023/07/15 01:57:41;;;;;;;8.05;2.92;;;19.20;1.00;;;;;;5073292;28;20044;-28
2023/07/15 02:00:08;;;;;;;5.60;3.38;;;19.10;1.00;;;;;;5076292;28;20098;-27
2023/07/15 02:02:34;;;;;;;5.07;2.78;;;19.10;1.00;;;;;;5084139;28;20075;-28
2023/07/15 02:05:00;;;;;;;5.80;2.83;;;19.10;1.00;;;;;;5083271;28;20071;-27
2023/07/15 02:07:25;;;;;;;5.47;2.85;;;19.10;1.00;;;;;;5075955;28;20393;-28
2023/07/15 02:09:51;;;;;;;5.85;2.70;;;19.10;1.00;;;;;;5087040;28;20105;-28
2023/07/15 02:12:17;;;;;;;7.60;3.03;;;19.10;1.00;;;;;;5096143;28;20401;-28
2023/07/15 02:14:43;;;;;;;5.25;3.05;;;19.00;1.00;;;;;;5086284;28;20083;-28
2023/07/15 02:17:09;;;;;;;4.95;2.78;;;18.90;1.00;;;;;;5080185;28;20045;-26
2023/07/15 02:19:34;;;;;;;6.78;2.78;;;18.90;1.00;;;;;;5078512;28;20040;-27
2023/07/15 02:22:00;;;;;;;10.77;2.60;;;18.80;1.00;;;;;;5080180;28;20055;-27
2023/07/15 02:24:26;;;;;;;5.78;2.80;;;18.80;1.00;;;;;;5096913;28;20048;-28
2023/07/15 02:26:52;;;;;;;5.07;2.40;;;18.80;1.00;;;;;;5096824;28;20500;-27
2023/07/15 02:29:18;;;;;;;6.82;2.50;;;18.80;1.50;;;;;;5095570;28;20489;-27
2023/07/15 02:31:44;;;;;;;3.97;2.65;;;18.80;1.00;;;;;;5097268;28;20047;-27
2023/07/15 02:34:10;;;;;;;4.35;2.90;;;18.80;7.90;;;;;;5092765;28;20390;-26
2023/07/15 02:36:36;;;;;;;5.78;2.40;;;18.80;1.00;;;;;;5078511;28;20052;-27
2023/07/15 02:39:05;;;;;;;3.60;2.25;;;18.80;1.00;;;;;;5097414;28;20132;-28
2023/07/15 02:41:32;;;;;;;4.97;2.63;;;18.90;1.00;;;;;;5096465;28;20043;-28
2023/07/15 02:43:58;;;;;;;4.63;2.60;;;18.90;1.00;;;;;;5096392;28;20044;-27
2023/07/15 02:46:24;;;;;;;8.00;2.38;;;18.90;99.90;;;;;;5095539;28;20140;-28
2023/07/15 02:48:50;;;;;;;5.55;2.20;;;19.00;99.90;;;;;;5096798;28;20063;-29
2023/07/15 02:51:16;;;;;;;8.55;2.35;;;19.00;99.90;;;;;;5095572;28;20044;-27
2023/07/15 02:53:43;;;;;;;5.35;2.85;;;19.00;99.90;;;;;;5089900;28;20044;-28
2023/07/15 02:56:09;;;;;;;5.72;2.40;;;19.00;99.90;;;;;;5085907;28;20064;-27
2023/07/15 02:58:35;;;;;;;4.85;2.20;;;19.10;99.90;;;;;;5082304;28;20494;-27
2023/07/15 03:01:00;;;;;;;2.75;1.83;;;19.00;99.90;;;;;;5094990;28;20051;-26
2023/07/15 03:03:26;;;;;;;5.75;1.98;;;19.00;97.50;;;;;;5092979;28;20048;-27
2023/07/15 03:05:54;;;;;;;5.07;2.22;;;19.00;27.50;;;;;;5095166;28;20040;-29
2023/07/15 03:08:20;;;;;;;3.40;2.03;;;19.00;4.90;;;;;;5079400;28;20115;-27
2023/07/15 03:10:46;;;;;;;5.13;1.80;;;19.10;1.00;;;;;;5082938;28;20482;-28
2023/07/15 03:13:12;;;;;;;6.20;2.22;;;19.20;99.90;;;;;;5045712;28;20033;-27
2023/07/15 03:15:39;;;;;;;4.60;1.98;;;19.20;99.90;;;;;;5093766;28;20116;-27
2023/07/15 03:18:05;;;;;;;6.65;2.50;;;19.30;99.90;;;;;;5094024;28;20047;-28
2023/07/15 03:20:31;;;;;;;5.38;2.30;;;19.40;99.90;;;;;;5077670;28;20052;-27
2023/07/15 03:22:57;;;;;;;8.63;2.38;;;19.40;99.90;;;;;;5091502;28;20056;-28
2023/07/15 03:25:24;;;;;;;4.68;1.95;;;19.40;1.00;;;;;;5087888;28;20056;-27
2023/07/15 03:27:50;;;;;;;4.15;1.58;;;19.40;43.20;;;;;;5095630;28;20047;-27
2023/07/15 03:30:17;;;;;;;6.43;2.17;;;19.50;1.00;;;;;;5080947;28;20055;-27
2023/07/15 03:32:44;;;;;;;4.65;1.95;;;19.60;1.00;;;;;;5076127;28;20045;-28
2023/07/15 03:35:11;;;;;;;2.88;1.80;;;19.50;1.00;;;;;;5076057;28;20048;-28
2023/07/15 03:37:40;;;;;;;5.55;1.95;;;19.50;1.00;;;;;;5075645;28;20395;-28
2023/07/15 03:40:08;;;;;;;7.32;2.15;;;19.40;1.00;;;;;;5075144;28;20048;-27
2023/07/15 03:42:40;;;;;;;7.35;3.38;;;19.40;1.00;;;;;;5090325;28;20044;-27
2023/07/15 03:45:06;;;;;;;6.55;2.00;;;19.30;1.00;;;;;;5095424;28;20044;-28
2023/07/15 03:47:34;;;;;;;4.72;2.17;;;19.20;17.40;;;;;;5093801;28;20056;-27
2023/07/15 03:50:04;;;;;;;6.07;2.70;;;19.20;99.50;;;;;;5094963;28;20521;-27
2023/07/15 03:52:30;;;;;;;4.32;2.40;;;19.00;99.90;;;;;;5095164;28;20040;-27
2023/07/15 03:54:57;;;;;;;4.57;1.90;;;19.00;99.90;;;;;;5095133;28;20135;-27
2023/07/15 03:57:23;;;;;;;4.60;1.73;;;18.90;99.90;;;;;;5095030;28;20046;-27
2023/07/15 03:59:49;;;;;;;5.63;1.90;;;18.80;99.90;;;;;;5094390;28;20040;-29
2023/07/15 04:02:15;;;;;;;10.25;2.65;;;18.70;1.00;;;;;;5094935;28;20446;-28
2023/07/15 04:04:41;;;;;;;5.20;1.83;;;18.60;1.00;;;;;;5094905;28;20085;-27
2023/07/15 04:07:09;;;;;;;6.68;2.30;;;18.50;1.00;;;;;;5093711;28;20051;-27
2023/07/15 04:09:35;;;;;;;5.22;2.35;;;18.40;1.00;;;;;;5086644;28;20045;-27
2023/07/15 04:12:01;;;;;;;8.80;2.47;;;18.40;54.10;;;;;;5080327;28;20059;-28
2023/07/15 04:14:27;;;;;;;6.82;2.33;;;18.40;86.00;;;;;;5092193;28;20130;-28
2023/07/15 04:16:53;;;;;;;8.95;2.20;;;18.30;99.90;;;;;;5092687;28;20068;-27
2023/07/15 04:19:18;;;;;;;5.63;2.40;;;18.30;99.90;;;;;;5093750;28;20079;-28
2023/07/15 04:21:44;;;;;;;6.53;2.33;;;18.30;99.90;;;;;;5057738;28;20055;-28
2023/07/15 04:24:10;;;;;;;8.48;2.33;;;18.30;99.90;;;;;;5086111;28;20398;-27
2023/07/15 04:26:35;;;;;;;5.30;2.05;;;18.40;99.90;;;;;;5086592;28;20093;-27
2023/07/15 04:29:03;;;;;;;12.07;2.42;;;18.40;99.90;;;;;;5072507;28;20043;-27
2023/07/15 04:31:28;;;;;;;2.53;1.90;;;18.40;99.90;;;;;;5073348;28;20059;-27
2023/07/15 04:33:55;;;;;;;4.22;1.92;;;18.40;99.90;;;;;;5077248;28;20044;-27
2023/07/15 04:36:22;;;;;;;7.90;2.08;;;18.40;99.90;;;;;;5076309;28;20113;-27
2023/07/15 04:38:48;;;;;;;6.25;2.92;;;18.50;99.90;;;;;;5093352;28;20055;-28
2023/07/15 04:41:14;;;;;;;6.05;2.28;;;18.50;1.00;;;;;;5092802;28;20071;-25
2023/07/15 04:43:40;;;;;;;5.03;2.42;;;18.60;99.90;;;;;;5073519;28;20405;-26
2023/07/15 04:46:06;;;;;;;6.03;2.05;;;18.60;99.90;;;;;;5073292;28;20044;-28
2023/07/15 04:48:33;;;;;;;12.60;2.70;;;18.70;99.90;;;;;;5073440;28;20048;-27
2023/07/15 04:50:59;;;;;;;4.72;2.00;;;18.80;1.00;;;;;;5056032;28;20056;-28
2023/07/15 04:53:25;;;;;;;6.05;2.05;;;18.80;99.90;;;;;;5072994;28;20410;-27
2023/07/15 04:55:51;;;;;;;7.13;2.35;;;19.00;99.90;;;;;;5072965;28;20040;-27
2023/07/15 04:58:18;;;;;;;3.60;2.20;;;19.00;99.90;;;;;;5073787;28;20044;-28
2023/07/15 05:00:46;;;;;;;5.68;2.70;;;19.20;99.90;;;;;;5072861;28;20101;-27
2023/07/15 05:03:12;;;;;;;6.75;3.17;;;19.30;99.90;;;;;;5084490;28;20040;-27
2023/07/15 05:05:44;;;;;;;6.13;2.35;;;19.40;99.90;;;;;;5078603;28;20078;-27
2023/07/15 05:08:12;;;;;;;6.45;2.38;;;19.40;99.90;;;;;;5092210;28;20061;-26
2023/07/15 05:10:38;;;;;;;7.10;2.85;;;19.40;99.90;;;;;;5092554;28;20044;-27
2023/07/15 05:13:06;;;;;;;8.27;2.60;;;19.40;99.90;;;;;;5088729;28;20055;-28
2023/07/15 05:15:33;;;;;;;5.32;2.30;;;19.40;99.90;;;;;;5085710;28;20048;-25
2023/07/15 05:17:59;;;;;;;3.90;2.20;;;19.40;99.90;;;;;;5088492;28;20067;-27
2023/07/15 05:20:25;;;;;;;4.45;3.00;;;19.60;99.90;;;;;;5094042;28;20059;-27
2023/07/15 05:22:51;;;;;;;5.78;2.13;;;19.70;99.90;;;;;;5093674;28;20383;-27
2023/07/15 05:25:17;;;;;;;5.88;2.50;;;20.10;99.90;;;;;;5079961;28;20539;-28
2023/07/15 05:27:43;;;;;;;5.30;2.80;;;20.50;99.90;;;;;;5075964;28;20054;-28
2023/07/15 05:30:09;;;;;;;4.85;2.63;;;20.90;1.00;;;;;;5087680;28;20115;-27
2023/07/15 05:32:35;;;;;;;5.35;2.50;;;21.50;99.90;;;;;;5073451;28;20119;-28
2023/07/15 05:35:01;;;;;;;5.50;2.38;;;21.90;99.90;;;;;;5072278;28;20522;-27
2023/07/15 05:37:27;;;;;;;10.70;3.58;;;22.30;1.00;;;;;;5073341;28;20048;-27
2023/07/15 05:39:53;;;;;;;5.70;2.55;;;22.40;99.90;;;;;;5072405;28;20098;-28
2023/07/15 05:42:19;;;;;;;6.97;2.58;;;;;;;;;;5077943;28;20041;-25
2023/07/15 05:44:46;;;;;;;4.15;2.53;;;23.00;99.90;;;;;;5077344;28;20084;-27
2023/07/15 05:47:11;;;;;;;4.57;2.70;;;23.30;1.00;;;;;;5077214;28;20099;-27
2023/07/15 05:49:37;;;;;;;5.38;2.40;;;23.50;1.00;;;;;;5076981;28;20075;-28
2023/07/15 05:52:03;;;;;;;4.68;2.40;;;23.50;1.00;;;;;;5059615;28;20486;-27
2023/07/15 05:54:28;;;;;;;7.85;2.50;;;23.50;99.90;;;;;;5076019;28;20106;-28
2023/07/15 05:56:54;;;;;;;9.23;2.47;;;23.40;99.90;;;;;;5077151;28;20071;-28
2023/07/15 05:59:20;;;;;;;5.20;2.33;;;23.70;99.90;;;;;;5076488;28;20126;-27
2023/07/15 06:01:46;;;;;;;5.80;2.20;;;23.60;99.90;;;;;;5076938;28;20474;-27
2023/07/15 06:04:13;;;;;;;4.97;2.40;;;23.50;99.90;;;;;;5093769;28;20052;-27
2023/07/15 06:06:38;;;;;;;5.28;2.80;;;23.60;99.90;;;;;;5079996;28;20390;-27
2023/07/15 06:09:04;;;;;;;5.65;2.17;;;23.60;99.90;;;;;;5083269;28;20107;-28
2023/07/15 06:11:30;;;;;;;4.65;2.70;;;23.50;99.90;;;;;;5084126;28;20489;-25
2023/07/15 06:13:57;;;;;;;6.40;2.28;;;23.70;99.90;;;;;;5097066;28;20036;-29
2023/07/15 06:16:23;;;;;;;5.88;2.67;;;23.70;99.90;;;;;;5096076;28;20101;-28
2023/07/15 06:18:49;;;;;;;3.63;2.33;;;23.70;1.00;;;;;;5086410;28;20048;-27
2023/07/15 06:21:15;;;;;;;3.72;2.30;;;24.00;99.90;;;;;;5076532;28;20052;-27
2023/07/15 06:23:40;;;;;;;5.40;2.40;;;24.40;99.90;;;;;;5077273;28;20578;-27
2023/07/15 06:26:06;;;;;;;5.82;1.90;;;24.60;99.90;;;;;;5092809;28;21310;-27
2023/07/15 06:28:32;;;;;;;4.80;2.50;;;25.00;99.90;;;;;;5088086;28;20127;-26
2023/07/15 06:31:07;;;;;;;8.13;2.45;;;25.00;99.90;;;;;;5088261;28;20181;-27
2023/07/15 06:33:36;;;;;;;6.35;2.28;;;24.50;1.00;;;;;;5083691;28;20099;-27
2023/07/15 06:36:03;;;;;;;6.45;1.90;;;24.60;99.90;;;;;;5076235;28;20115;-28
2023/07/15 06:38:29;;;;;;;5.50;2.20;;;24.80;99.90;;;;;;5076319;28;20536;-27
2023/07/15 06:40:56;;;;;;;4.07;2.35;;;24.70;99.90;;;;;;5085164;28;20048;-27
2023/07/15 06:43:22;;;;;;;8.38;2.38;;;25.00;49.40;;;;;;5094228;28;20036;-27
2023/07/15 06:45:48;;;;;;;4.63;2.00;;;25.10;1.00;;;;;;5095311;28;20055;-27
2023/07/15 06:48:17;;;;;;;2.95;2.03;;;25.10;1.00;;;;;;5088297;28;20056;-26
2023/07/15 06:50:43;;;;;;;4.88;1.90;;;24.90;1.00;;;;;;5077617;28;20045;-25
2023/07/15 06:53:08;;;;;;;4.95;1.92;;;25.00;1.00;;;;;;5096992;28;20051;-27
2023/07/15 06:55:34;;;;;;;6.13;2.00;;;24.90;1.00;;;;;;5095061;28;20051;-27
2023/07/15 06:58:02;;;;;;;7.20;1.73;;;25.30;1.00;;;;;;5096238;28;20051;-27
2023/07/15 07:00:28;;;;;;;4.05;1.65;;;25.20;1.00;;;;;;5081966;28;20497;-27
2023/07/15 07:02:54;;;;;;;5.95;1.95;;;25.10;99.90;;;;;;5076742;28;20036;-25
2023/07/15 07:05:19;;;;;;;5.85;1.55;;;25.00;99.90;;;;;;5096659;28;20044;-27
2023/07/15 07:07:46;;;;;;;5.47;1.80;;;24.80;1.00;;;;;;5095222;28;20042;-28
2023/07/15 07:10:12;;;;;;;5.22;1.80;;;24.90;80.60;;;;;;5094820;28;20044;-27
2023/07/15 07:12:38;;;;;;;4.57;1.55;;;24.90;29.90;;;;;;5069883;28;20097;-26
2023/07/15 07:15:05;;;;;;;5.25;2.10;;;25.00;1.00;;;;;;5082554;28;20085;-27
2023/07/15 07:17:30;;;;;;;4.13;1.92;;;25.20;1.00;;;;;;5089217;28;20056;-27
2023/07/15 07:19:56;;;;;;;9.55;1.90;;;25.00;1.00;;;;;;5077908;28;20048;-27
2023/07/15 07:22:22;;;;;;;3.75;1.50;;;24.80;1.00;;;;;;5082623;28;20482;-26
2023/07/15 07:24:49;;;;;;;3.65;1.88;;;24.00;99.90;;;;;;5094051;28;20089;-26
2023/07/15 07:27:15;;;;;;;3.30;1.80;;;23.50;99.90;;;;;;5093096;28;20044;-25
2023/07/15 07:29:41;;;;;;;3.95;1.92;;;23.00;1.00;;;;;;5081865;28;20167;-26
2023/07/15 07:32:06;;;;;;;4.25;1.95;;;22.90;99.90;;;;;;5064184;28;20041;-28
2023/07/15 07:34:35;;;;;;;3.78;1.95;;;23.00;99.90;;;;;;5081519;28;20044;-28
2023/07/15 07:37:01;;;;;;;4.28;1.80;;;23.30;85.50;;;;;;5079735;28;20045;-27
2023/07/15 07:39:26;;;;;;;5.07;1.88;;;24.10;1.00;;;;;;5075205;28;20096;-28
2023/07/15 07:41:52;;;;;;;3.25;1.70;;;24.70;45.50;;;;;;5089566;28;20123;-26
2023/07/15 07:44:18;;;;;;;6.55;1.95;;;25.00;99.90;;;;;;5095368;28;20157;-27
2023/07/15 07:46:44;;;;;;;4.25;2.15;;;25.10;99.90;;;;;;5091123;28;20494;-28
2023/07/15 07:49:09;;;;;;;4.63;2.08;;;25.30;99.90;;;;;;5075240;28;20052;-26
2023/07/15 07:51:35;;;;;;;5.00;1.85;;;25.90;99.90;;;;;;5074955;28;20478;-26
2023/07/15 07:54:01;;;;;;;8.15;1.63;;;26.00;40.60;;;;;;5073700;28;20043;-27
2023/07/15 07:56:27;;;;;;;3.75;1.60;;;25.60;1.00;;;;;;5074867;28;20094;-27
2023/07/15 07:58:58;;;;;;;4.28;1.08;;;25.30;99.90;;;;;;5057549;28;20125;-26
2023/07/15 08:01:24;;;;;;;3.95;1.90;;;24.90;25.00;;;;;;5073585;28;20079;-27
2023/07/15 08:03:50;;;;;;;5.20;2.00;;;25.20;99.90;;;;;;5074302;28;20071;-27
2023/07/15 08:06:17;;;;;;;4.95;2.53;;;25.40;99.90;;;;;;5074792;28;20131;-27
2023/07/15 08:08:43;;;;;;;3.78;1.40;;;25.70;99.90;;;;;;5074880;28;20114;-26
2023/07/15 08:11:08;;;;;;;5.38;1.63;;;25.40;1.00;;;;;;5075112;28;20483;-28
2023/07/15 08:13:35;;;;;;;8.10;1.85;;;;;;;;;;5073370;28;20041;-25
2023/07/15 08:16:00;;;;;;;4.40;1.60;;;25.20;99.90;;;;;;5074864;28;20045;-28
2023/07/15 08:18:26;;;;;;;5.13;1.30;;;25.40;1.00;;;;;;5074137;28;20118;-27
2023/07/15 08:20:52;;;;;;;3.33;1.27;;;25.40;1.00;;;;;;5074374;28;20040;-29
2023/07/15 08:23:20;;;;;;;2.80;1.30;;;25.30;1.00;;;;;;5040749;28;20115;-29
2023/07/15 08:25:46;;;;;;;4.60;1.00;;;25.10;92.20;;;;;;5073160;28;20076;-29
2023/07/15 08:28:11;;;;;;;1.55;1.10;;;25.30;99.90;;;;;;5074255;28;20056;-27
2023/07/15 08:30:37;;;;;;;3.67;1.33;;;25.00;99.90;;;;;;5074476;28;20036;-28
2023/07/15 08:33:04;;;;;;;2.47;1.20;;;24.80;99.90;;;;;;5074639;28;20371;-28
2023/07/15 08:35:30;;;;;;;3.55;1.23;;;24.60;99.90;;;;;;5073477;28;20044;-27
2023/07/15 08:37:56;;;;;;;3.53;1.30;;;24.70;99.90;;;;;;5074094;28;20052;-28
2023/07/15 08:40:25;;;;;;;3.40;1.00;;;25.10;99.90;;;;;;5073631;28;20049;-27
2023/07/15 08:42:51;;;;;;;2.40;1.05;;;25.70;99.90;;;;;;5073619;28;20043;-27
2023/07/15 08:45:21;;;;;;;2.40;1.45;;;25.70;2.70;;;;;;5073033;28;20127;-27
2023/07/15 08:47:48;;;;;;;3.47;1.60;;;25.70;1.00;;;;;;5075308;28;20607;-28
2023/07/15 08:50:17;;;;;;;2.35;1.20;;;25.90;1.00;;;;;;5073876;28;20282;-27
2023/07/15 08:52:44;;;;;;;4.47;1.10;;;25.60;1.00;;;;;;5073892;28;20049;-27
2023/07/15 08:55:10;;;;;;;2.47;1.10;;;25.40;1.00;;;;;;5072608;28;20054;-28
2023/07/15 08:57:36;;;;;;;2.45;0.95;;;25.60;1.00;;;;;;5075382;28;20401;-27
2023/07/15 09:00:10;;;;;;;2.60;1.02;;;25.40;1.00;;;;;;5092690;28;20044;-27
2023/07/15 09:02:37;;;;;;;2.25;0.95;;;25.40;1.00;;;;;;5094003;28;20044;-27
2023/07/15 09:05:12;;;;;;;1.45;0.90;;;26.00;99.90;;;;;;5093978;28;20051;-27
2023/07/15 09:07:55;;;;;;;2.58;0.80;;;26.60;99.90;;;;;;5080134;28;20044;-27
2023/07/15 09:10:21;;;;;;;4.43;0.68;;;26.90;99.90;;;;;;5083498;28;20424;-28
2023/07/15 09:12:51;;;;;;;1.40;0.70;;;27.00;99.90;;;;;;5092435;28;20040;-28
2023/07/15 09:15:16;;;;;;;3.08;0.98;;;27.10;19.80;;;;;;5079495;28;20044;-27
2023/07/15 09:17:52;;;;;;;2.53;1.17;;;27.20;1.00;;;;;;5082842;28;20078;-27
2023/07/15 09:20:19;;;;;;;3.25;0.90;;;27.30;1.00;;;;;;5091127;28;20067;-27
2023/07/15 09:22:57;;;;;;;5.47;0.95;;;26.60;1.00;;;;;;5088612;28;20041;-27
2023/07/15 09:25:23;;;;;;;2.47;0.90;;;25.90;1.00;;;;;;5057412;28;20052;-28
2023/07/15 09:27:50;;;;;;;1.83;0.80;;;25.30;99.90;;;;;;5073491;28;20056;-28
2023/07/15 09:30:16;;;;;;;2.45;1.05;;;24.90;99.90;;;;;;5073566;28;20067;-27
2023/07/15 09:32:42;;;;;;;4.32;0.80;;;24.60;99.90;;;;;;5072384;28;20049;-27
2023/07/15 09:35:08;;;;;;;2.33;0.77;;;24.50;1.00;;;;;;5072877;28;20048;-28
2023/07/15 09:37:34;;;;;;;1.10;0.63;;;24.20;1.00;;;;;;5088359;28;20096;-27
2023/07/15 09:40:05;;;;;;;1.90;0.90;;;24.10;44.40;;;;;;5093609;28;20051;-27
2023/07/15 09:42:49;;;;;;;1.48;0.65;;;23.90;27.70;;;;;;5093578;28;20040;-27
2023/07/15 09:45:38;;;;;;;2.35;0.88;;;23.90;99.90;;;;;;5088077;28;20493;-27
2023/07/15 09:48:16;;;;;;;2.13;1.00;;;24.50;63.00;;;;;;5073303;28;20076;-27
2023/07/15 09:50:42;;;;;;;2.85;0.88;;;24.60;1.00;;;;;;5082229;28;20044;-29
2023/07/15 09:53:09;;;;;;;2.67;0.88;;;24.70;1.00;;;;;;5093456;28;20119;-27
2023/07/15 09:55:36;;;;;;;3.67;1.05;;;24.90;1.00;;;;;;5077712;28;20546;-27
2023/07/15 09:58:08;;;;;;;3.67;0.80;;;25.40;99.90;;;;;;5073550;28;20470;-28
2023/07/15 10:00:38;;;;;;;3.28;0.90;;;25.70;99.90;;;;;;5078167;28;20041;-28
2023/07/15 10:03:05;;;;;;;4.80;1.00;;;25.70;99.90;;;;;;5092186;28;20048;-27
2023/07/15 10:05:32;;;;;;;2.55;1.10;;;25.60;99.90;;;;;;5084676;28;20401;-28
2023/07/15 10:07:58;;;;;;;2.20;1.08;;;26.10;99.90;;;;;;5056456;28;20056;-27
2023/07/15 10:10:23;;;;;;;1.73;0.80;;;26.70;99.90;;;;;;5073350;28;20072;-27
2023/07/15 10:12:50;;;;;;;3.13;0.90;;;26.90;99.90;;;;;;5055358;28;20049;-28
2023/07/15 10:15:17;;;;;;;3.55;1.02;;;27.30;99.90;;;;;;5071920;28;20498;-28
2023/07/15 10:17:45;;;;;;;2.13;0.70;;;27.20;1.00;;;;;;5089025;28;20048;-28
2023/07/15 10:20:11;;;;;;;5.60;1.02;;;27.70;99.90;;;;;;5076178;28;20119;-28
2023/07/15 10:22:38;;;;;;;6.35;1.30;;;27.80;1.00;;;;;;5059733;28;20044;-27
2023/07/15 10:25:07;;;;;;;1.88;1.20;;;28.00;1.00;;;;;;5073658;28;20098;-28
2023/07/15 10:27:33;;;;;;;4.30;1.10;;;28.00;1.00;;;;;;5072893;28;20116;-27
2023/07/15 10:30:23;;;;;;;3.22;1.35;;;28.10;1.00;;;;;;5074844;28;20136;-27
2023/07/15 10:33:00;;;;;;;2.35;1.13;;;27.90;1.00;;;;;;5084534;28;20044;-27
2023/07/15 10:35:28;;;;;;;1.88;1.25;;;27.50;50.50;;;;;;5096850;28;20051;-28
2023/07/15 10:37:56;;;;;;;1.40;0.77;;;27.20;81.10;;;;;;5096675;28;20055;-27
2023/07/15 10:40:50;;;;;;;4.65;1.02;;;27.10;38.50;;;;;;5096551;28;20054;-28
2023/07/15 10:43:35;;;;;;;2.17;0.90;;;26.80;51.60;;;;;;5076053;28;20517;-29
2023/07/15 10:46:11;;;;;;;4.50;1.30;;;26.60;99.90;;;;;;5076281;28;20126;-29
2023/07/15 10:48:38;;;;;;;2.10;1.38;;;26.00;99.90;;;;;;5075889;28;20052;-27
2023/07/15 10:51:11;;;;;;;4.18;1.23;;;25.70;99.90;;;;;;5075484;28;20045;-28
2023/07/15 10:53:38;;;;;;;1.98;1.20;;;26.00;1.00;;;;;;5079361;28;20474;-27
2023/07/15 10:56:11;;;;;;;3.38;1.75;;;26.90;99.90;;;;;;5096071;28;20470;-29
2023/07/15 10:58:38;;;;;;;2.00;1.00;;;27.70;79.20;;;;;;5088327;28;20141;-27
2023/07/15 11:01:06;;;;;;;2.92;1.40;;;28.00;32.10;;;;;;5094379;28;20048;-26
2023/07/15 11:03:38;;;;;;;1.98;1.15;;;27.80;1.00;;;;;;5078358;28;20133;-27
2023/07/15 11:06:05;;;;;;;4.65;1.50;;;26.90;57.00;;;;;;5076541;28;20097;-28
2023/07/15 11:08:31;;;;;;;2.83;1.70;;;26.20;99.90;;;;;;5057920;28;20040;-27
2023/07/15 11:10:59;;;;;;;3.58;1.60;;;26.00;99.90;;;;;;5075766;28;20482;-28
2023/07/15 11:13:25;;;;;;;3.88;1.52;;;26.50;1.00;;;;;;5082516;28;20048;-27
2023/07/15 11:15:51;;;;;;;1.48;0.93;;;27.10;1.00;;;;;;5095936;28;20040;-28
2023/07/15 11:18:19;;;;;;;2.33;1.17;;;27.40;99.90;;;;;;5094104;28;20474;-26
2023/07/15 11:20:46;;;;;;;2.67;1.27;;;27.30;99.90;;;;;;5082675;28;20118;-28
2023/07/15 11:23:12;;;;;;;3.30;1.48;;;27.50;99.90;;;;;;5093519;28;20037;-28
2023/07/15 11:25:38;;;;;;;3.03;1.10;;;28.20;44.60;;;;;;5084030;28;20124;-28
2023/07/15 11:28:05;;;;;;;4.97;1.40;;;28.40;1.00;;;;;;5084186;28;20120;-28
2023/07/15 11:30:45;;;;;;;4.07;1.48;;;28.20;1.00;;;;;;5075665;28;20359;-25
2023/07/15 11:33:12;;;;;;;3.05;1.90;;;27.90;1.00;;;;;;5076376;28;20044;-26
2023/07/15 11:35:39;;;;;;;2.88;1.25;;;27.20;39.90;;;;;;5075972;28;20104;-27
2023/07/15 11:38:10;;;;;;;3.10;1.60;;;27.20;99.90;;;;;;5077865;28;20383;-25
2023/07/15 11:40:48;;;;;;;3.03;1.45;;;27.10;99.90;;;;;;5091713;28;20059;-26
2023/07/15 11:43:15;;;;;;;4.70;1.70;;;26.90;99.90;;;;;;5096256;28;20454;-25
2023/07/15 11:45:41;;;;;;;4.38;1.83;;;26.90;99.90;;;;;;5092375;28;20499;-26
2023/07/15 11:48:07;;;;;;;5.05;1.90;;;26.90;99.90;;;;;;5107231;28;20056;-27
2023/07/15 11:50:35;;;;;;;2.47;1.50;;;26.80;99.90;;;;;;5107380;28;20100;-26
2023/07/15 11:53:02;;;;;;;3.17;1.42;;;26.60;1.00;;;;;;5098603;28;20097;-28
2023/07/15 11:55:29;;;;;;;4.05;1.58;;;26.50;1.00;;;;;;5088022;28;20075;-26
2023/07/15 11:57:55;;;;;;;2.30;1.45;;;26.50;1.00;;;;;;5101989;28;20040;-27
2023/07/15 12:00:29;;;;;;;2.85;1.95;;;26.50;1.00;;;;;;5104646;28;20047;-26
2023/07/15 12:02:56;;;;;;;5.07;1.67;;;26.30;99.90;;;;;;5080201;28;20040;-26
2023/07/15 12:05:22;;;;;;;3.80;2.17;;;26.20;99.90;;;;;;5082627;28;20046;-26
2023/07/15 12:07:50;;;;;;;4.45;1.60;;;25.90;97.70;;;;;;5079350;28;20110;-26
2023/07/15 12:10:17;;;;;;;3.15;1.85;;;25.70;99.90;;;;;;5087355;28;20081;-25
2023/07/15 12:12:45;;;;;;;3.47;1.67;;;25.30;99.90;;;;;;5082451;28;20048;-26
2023/07/15 12:15:15;;;;;;;4.60;2.00;;;25.30;99.90;;;;;;5081601;28;20409;-27
2023/07/15 12:17:41;;;;;;;5.90;1.40;;;25.50;1.00;;;;;;5082097;28;20113;-24
2023/07/15 12:20:07;;;;;;;2.53;1.70;;;25.60;1.00;;;;;;5087810;28;20044;-26
2023/07/15 12:22:34;;;;;;;4.70;1.80;;;25.60;1.00;;;;;;5086671;28;20556;-25
2023/07/15 12:24:59;;;;;;;3.05;1.60;;;25.60;1.00;;;;;;5062195;28;20081;-25
2023/07/15 12:27:25;;;;;;;2.90;1.73;;;25.50;1.00;;;;;;5078274;28;20052;-27
2023/07/15 12:29:51;;;;;;;5.30;1.80;;;25.30;1.00;;;;;;5079855;28;20075;-26
2023/07/15 12:32:17;;;;;;;3.78;2.00;;;24.90;99.90;;;;;;5094328;28;20097;-27
2023/07/15 12:34:43;;;;;;;3.50;1.48;;;24.70;99.90;;;;;;5092889;28;20162;-27
2023/07/15 12:37:09;;;;;;;3.42;1.48;;;24.40;1.00;;;;;;5094213;28;20520;-26
2023/07/15 12:39:34;;;;;;;4.07;1.70;;;24.20;99.90;;;;;;5093507;28;20044;-27
2023/07/15 12:42:00;;;;;;;3.20;1.63;;;24.30;99.90;;;;;;5080479;28;20055;-26
2023/07/15 12:44:26;;;;;;;2.90;1.60;;;24.90;1.00;;;;;;5077392;28;20390;-26
2023/07/15 12:46:51;;;;;;;3.35;1.70;;;26.10;99.90;;;;;;5087504;28;20048;-26
2023/07/15 12:49:17;;;;;;;3.00;1.65;;;26.80;99.90;;;;;;5079485;28;20052;-27
2023/07/15 12:51:43;;;;;;;3.10;1.55;;;27.30;99.90;;;;;;5086270;28;20044;-26